SEBI

Registration No.

INH000000305

Ip Address Lookup

So far visitors:

customizable counter

TRIAL

TRIAL

SEND SMS FOR TRIAL

EQUITY - COMMODITY OR BOTH

TO

 09920033678

AND GET TRIAL

 

SEBI Registration No.: INH000000305 *****

* Commodity: 9500/month * Equity: 6000/month


* Gold Package: 7000 * Gold-Silver Package: 8100
*Crude-NG-Copper-Nickel Package: 6000


To See Past Performance, Click Here

For TRIAL / Registration,

click here

Past Performance >> Equity Tips
 
Search
 
Entry Start Date Entry End Date
Exit Start Date Exit End Date
Scrip Name Contract
Package
 

Packages: Precious Metals - Energy and Base Metals - Profit is calculated on basis of 1 lot per call

Package: Equity calls: Profit is calculated as follows:

1. If the scrip is in F & O then 1 lot is counted otherwise

2. Trade of Rs.1,50,000/- per call is counted.

 
Page: ( 1 2 3 4 5 6 7 8 9 10 11 12 13 14 15 16 17 18 19 20 21 22 23 24 25 26 27 28 29 30 31 32 33 34 35 36 37 38 39 40 41 42 43 44 45 46 47 48 49 50 51 52 53 54 55 56 57 58 59 60 61 62 63 64 65 66 67 68 69 70 71 72 73 74 75 76 77 78 79 80 81 82 83 84 85 86 87 88 89 90 91 92 93 94 95 96 97 98 99 100 101 102 103 104 105 106 107 108 109 110 ) [Current Page: 56]
Displaying 4126 to 4200   Calls
Entry Date Type Scrip Entry Price (Rs) T1
(Rs)
T2
(Rs)
T3
(Rs)
Stop Loss
(Rs)
Exit Date Exit Rate
(Rs)
Profit
(Rs)
 
20-01-14 Sell Below JSWSteel 995 985 975 --- 1005 20-01-14 1005 -5000.00 More
20-01-14 Sell AXIS BANK 1140 1130 1120 --- 1155 20-01-14 1155 -3750.00 More
17-01-14 Sell VOLTAS 105 103 100 --- 107 17-01-14 103.55 5800.00 More
17-01-14 Sell Below BANK NIFTY 11050 11000 10940 10870 11130 17-01-14 10915 3375.00 More
17-01-14 Buy Above Nifty 6335 6355 6365 6390 6315 17-01-14 6315 -1000.00 More
17-01-14 Sell Below Nifty 6315 6295 6275 6250 6335 17-01-14 6250 3250.00 More
17-01-14 Buy HINDALCO 113.50 115 117 --- 111.50 17-01-14 111.50 -4000.00 More
16-01-14 Buy BANK NIFTY 11150 11200 11250 11300 11080 16-01-14 11080 -1750.00 More
16-01-14 Sell Below BANK NIFTY 11080 11000 10950 10870 11150 16-01-14 11100 -500.00 More
16-01-14 Buy Nifty 6340 6360 6380 6400 6315 16-01-14 6315 -1250.00 More
16-01-14 Sell Below Nifty 6315 6290 6270 6250 6340 16-01-14 6325 -500.00 More
16-01-14 Buy Above BOI 241 246 249 252 235 16-01-14 235 -12000.00 More
16-01-14 Buy HDFC 851 860 870 --- 840 16-01-14 866 7500.00 More
16-01-14 Buy Above Century Textiles 319 323 328 --- 315 16-01-14 315 -4000.00 More
16-01-14 Buy Above 213 216 218 220 210 16-01-14 217.50 9000.00 More
15-01-14 Buy Above AURO PHARMA 392 396 400 --- 388 15-01-14 388 -8000.00 More
15-01-14 Buy BANK NIFTY 11040 11100 11200 11300 10980 15-01-14 11190 3750.00 More
15-01-14 Buy Nifty 6285 6310 6330 6350 6260 15-01-14 6335 2500.00 More
15-01-14 Buy Above IDEA 168.50 172 175 --- 165.50 15-01-14 170.40 3800.00 More
15-01-14 Buy Above 1300 1315 1325 1335 1280 17-01-14 1280 -5000.00 More
14-01-14 Sell MARUTI 1778 1765 1755 1745 1792 14-01-14 1765 3250.00 More
14-01-14 Buy Above BANK NIFTY 11070 11150 11220 11300 11000 14-01-14 11000 -1750.00 More
14-01-14 Sell Below BANK NIFTY 11000 10940 10880 10800 11070 14-01-14 10935 1625.00 More
14-01-14 Sell Below Nifty 6270 6250 6230 6210 6295 14-01-14 6245 1250.00 More
13-01-14 Buy Above BANK NIFTY 10950 11000 11050 11150 10870 13-01-14 11050 2500.00 More
13-01-14 Buy Nifty 6245 6260 6280 6315 6220 13-01-14 6285 2000.00 More
13-01-14 Buy MARUTI 1810 1825 1840 --- 1795 13-01-14 1820 2500.00 More
13-01-14 Buy ITC 326 330 334 --- 322 14-01-14 330.50 4500.00 More
13-01-14 Buy Above 207 210 212 215 204 15-01-14 215 16000.00 More
10-01-14 Sell Below BOI 230 226 221 --- 234 13-01-14 226 8000.00 More
10-01-14 Sell 968 960 950 940 980 10-01-14 980 -6000.00 More
10-01-14 Sell BANK NIFTY 10930 10870 10820 10750 11000 10-01-14 11000 -1750.00 More
10-01-14 Buy Above BANK NIFTY 11000 11080 11150 11300 10930 10-01-14 11115 2875.00 More
10-01-14 Sell HINDALCO 112 110 108 106 113.50 13-01-14 109 6000.00 More
10-01-14 Sell Nifty 6165 6145 6125 6100 6190 10-01-14 6190 -1250.00 More
10-01-14 Buy Above Nifty 6190 6210 6230 6250 6165 10-01-14 6250 3000.00 More
10-01-14 Sell ACC 1050 1040 1030 1020 1065 13-01-14 1031 4750.00 More
09-01-14 Sell Below VOLTAS 116 114 112 --- 118 10-01-14 112 16000.00 More
09-01-14 Sell Below FRL 89 86 84 82 91 09-01-14 91 -8000.00 More
09-01-14 Buy BANK NIFTY 11120 11180 11250 11300 11050 09-01-14 11050 -1750.00 More
09-01-14 Sell Below BANK NIFTY 11050 11000 10950 10880 11120 09-01-14 10955 2375.00 More
09-01-14 Sell Below Nifty 6185 6165 6145 6120 6205 09-01-14 6165 1000.00 More
09-01-14 Sell Below 995 985 975 965 1006 09-01-14 975 10000.00 More
08-01-14 Sell ADANI ENT 242 237 232 --- 246 08-01-14 238 8000.00 More
08-01-14 Buy MARUTI 1855 1870 1880 1890 1840 08-01-14 1840 -3750.00 More
08-01-14 Buy Above BANK NIFTY 11150 11220 11300 11400 11070 08-01-14 11120 -750.00 More
08-01-14 Sell Below Nifty 6190 6170 6150 6130 6215 08-01-14 6190 0.00 More
08-01-14 Buy Above Nifty 6215 6235 6250 6270 6190 08-01-14 6190 -1250.00 More
08-01-14 Buy Above 204 207 210 --- 201 10-01-14 207.75 7500.00 More
07-01-14 Buy 14 20 26 35 4 16-01-14 4 -1250.00 More
07-01-14 Sell Below BANK NIFTY 11140 11080 11000 10900 11230 07-01-14 10940 5000.00 More
07-01-14 Sell Below Nifty 6225 6200 6180 6160 6250 07-01-14 6175 2500.00 More
06-01-14 Sell Below M&M 904 895 885 --- 913 07-01-14 896 2000.00 More
06-01-14 Sell PNB 613 605 598 590 622 13-01-14 590 11500.00 More
06-01-14 Sell BANK NIFTY 11175 11120 11050 10950 11240 06-01-14 11060 2875.00 More
06-01-14 Sell Nifty 6220 6200 6180 6160 6240 06-01-14 6205 750.00 More
06-01-14 Sell Below Tata Power 83 81 79 --- 84.50 07-01-14 80.20 11200.00 More
06-01-14 Sell NTPC 131.50 130 129 128 133 06-01-14 133 -3000.00 More
06-01-14 Sell Ambuja Cement 176.50 174 172 170 179.50 07-01-14 176.50 0.00 More
03-01-14 Sell ITC 315 311 308 --- 318 03-01-14 312.50 2500.00 More
03-01-14 Sell SBI 1735 1710 1690 --- 1755 06-01-14 1690 5625.00 More
03-01-14 Sell BANK NIFTY 11230 11150 11100 11000 11300 03-01-14 11150 2000.00 More
03-01-14 Sell Nifty 6235 6215 6200 6180 6255 03-01-14 6215 1000.00 More
03-01-14 Sell Below CIPLA 391 385 380 --- 396 03-01-14 396 -2500.00 More
02-01-14 Buy RComm 140 143 145 147 137 02-01-14 137 -6000.00 More
02-01-14 Buy Above IRB Infra 98 100 102 --- 96 02-01-14 100.40 9600.00 More
02-01-14 Buy BANK NIFTY 11550 11620 11650 11750 11480 02-01-14 11675 3125.00 More
02-01-14 Sell Below BANK NIFTY 11480 11410 11350 11200 11550 02-01-14 11230 6250.00 More
02-01-14 Buy Nifty 6375 6390 6410 6430 6350 02-01-14 6405 1500.00 More
02-01-14 Sell Below Nifty 6350 6330 6310 6250 6375 02-01-14 6250 5000.00 More
02-01-14 Buy Above PNB 643 648 655 660 637 02-01-14 659 8000.00 More
02-01-14 Buy Above BIOCON 476 481 487 --- 471 02-01-14 471 -5000.00 More
01-01-14 Buy HCC 16 18 20 22 14 17-01-14 14 -12500.00 More
01-01-14 Buy NTPC 139 142 146 152 135 03-01-14 135 -8000.00 More
01-01-14 Buy MMTC 53.70 56 58 62 50 27-01-14 50 -6882.00 More
Page wise profit 104393.00 Rs
Profit 25633977.00 Rs
TRIAL

TRIAL

SEND SMS FOR TRIAL

EQUITY - COMMODITY OR BOTH

TO

 09920033678

AND GET TRIAL